createdAt,value
2022-12-23T00:03:16.075Z,6.30
2022-12-23T00:08:18.223Z,6.30
2022-12-23T00:13:38.958Z,6.30
2022-12-23T00:18:41.940Z,6.29
2022-12-23T00:23:48.114Z,6.28
2022-12-23T00:28:50.462Z,6.26
2022-12-23T00:33:53.590Z,6.25
2022-12-23T00:39:19.542Z,6.23
2022-12-23T00:44:28.355Z,6.27
2022-12-23T00:49:41.971Z,6.29
2022-12-23T00:54:48.501Z,6.25
2022-12-23T00:59:50.253Z,6.22
2022-12-23T01:05:10.520Z,6.21
2022-12-23T01:10:14.581Z,6.17
2022-12-23T01:15:17.441Z,6.13
2022-12-23T01:20:22.602Z,6.10
2022-12-23T01:25:26.550Z,6.08
2022-12-23T01:30:31.229Z,6.10
2022-12-23T01:35:34.579Z,6.09
2022-12-23T01:40:39.614Z,6.35
2022-12-23T01:45:50.347Z,6.27
2022-12-23T01:50:56.360Z,6.24
2022-12-23T01:56:00.992Z,6.19
2022-12-23T02:01:21.213Z,6.14
2022-12-23T02:07:07.491Z,6.09
2022-12-23T02:12:37.156Z,6.05
2022-12-23T02:18:01.627Z,6.04
2022-12-23T02:23:06.553Z,6.06
2022-12-23T02:28:45.457Z,6.07
2022-12-23T02:33:55.383Z,6.07
2022-12-23T02:39:17.203Z,6.09
2022-12-23T02:44:40.650Z,6.10
2022-12-23T02:49:48.999Z,6.12
2022-12-23T02:54:59.091Z,6.11
2022-12-23T03:00:01.711Z,6.09
2022-12-23T03:05:23.036Z,6.06
2022-12-23T03:10:45.507Z,6.04
2022-12-23T03:16:25.937Z,6.05
2022-12-23T03:21:41.120Z,5.99
2022-12-23T03:26:45.504Z,5.97
2022-12-23T03:31:47.626Z,5.96
2022-12-23T03:36:52.329Z,5.94
2022-12-23T03:42:02.629Z,5.92
2022-12-23T03:47:11.500Z,5.90
2022-12-23T03:52:21.923Z,5.89
2022-12-23T03:57:28.739Z,5.90
2022-12-23T04:02:51.102Z,5.92
2022-12-23T04:08:05.180Z,5.94
2022-12-23T04:13:10.804Z,5.94
2022-12-23T04:18:12.599Z,5.93
2022-12-23T04:23:19.062Z,5.94
2022-12-23T04:28:20.818Z,5.96
2022-12-23T04:33:24.884Z,5.97
2022-12-23T04:38:29.215Z,5.97
2022-12-23T04:43:33.168Z,5.95
2022-12-23T04:48:35.770Z,5.94
2022-12-23T04:53:39.834Z,5.89
2022-12-23T04:58:41.567Z,5.86
2022-12-23T05:03:43.272Z,5.86
2022-12-23T05:08:47.966Z,5.86
2022-12-23T05:13:49.685Z,5.85
2022-12-23T05:18:58.111Z,5.81
2022-12-23T05:23:59.848Z,5.83
2022-12-23T05:29:02.563Z,5.84
2022-12-23T05:34:06.796Z,5.86
2022-12-23T05:39:14.328Z,5.85
2022-12-23T05:44:18.550Z,5.83
2022-12-23T05:49:23.222Z,5.80
2022-12-23T05:54:25.619Z,5.69
2022-12-23T05:59:31.665Z,5.63
2022-12-23T06:04:33.605Z,5.54
2022-12-23T06:09:40.164Z,5.48
2022-12-23T06:14:44.204Z,5.40
2022-12-23T06:19:48.971Z,5.38
2022-12-23T06:24:53.227Z,5.39
2022-12-23T06:29:55.060Z,5.40
2022-12-23T06:34:57.708Z,5.40
2022-12-23T06:40:04.221Z,5.41
2022-12-23T06:45:08.698Z,5.42
2022-12-23T06:50:13.463Z,5.44
2022-12-23T06:55:18.307Z,5.45
2022-12-23T07:00:20.236Z,5.44
2022-12-23T07:05:22.072Z,5.42
2022-12-23T07:10:26.035Z,5.41
2022-12-23T07:15:30.549Z,5.45
2022-12-23T07:20:34.611Z,5.46
2022-12-23T07:25:39.326Z,5.47
2022-12-23T07:30:41.050Z,5.47
2022-12-23T07:35:45.452Z,5.45
2022-12-23T07:40:51.948Z,5.46
2022-12-23T07:46:08.604Z,5.47
2022-12-23T07:51:10.399Z,5.47
2022-12-23T07:56:14.448Z,5.45
2022-12-23T08:01:21.526Z,5.50
2022-12-23T08:06:25.449Z,5.57
2022-12-23T08:11:31.967Z,8.17
2022-12-23T08:16:39.591Z,10.75
2022-12-23T08:21:47.319Z,12.56
2022-12-23T08:26:51.316Z,13.76
2022-12-23T08:31:58.270Z,14.66
2022-12-23T08:37:04.523Z,15.29
2022-12-23T08:42:12.236Z,15.78
2022-12-23T08:47:19.205Z,16.12
2022-12-23T08:52:25.952Z,16.39
2022-12-23T08:57:29.072Z,16.60
2022-12-23T09:02:35.489Z,16.76
2022-12-23T09:07:40.433Z,16.89
2022-12-23T09:12:44.906Z,16.99
2022-12-23T09:17:49.229Z,17.08
2022-12-23T09:22:53.523Z,17.17
2022-12-23T09:27:59.774Z,17.24
2022-12-23T09:33:06.773Z,17.30
2022-12-23T09:38:08.908Z,17.36
2022-12-23T09:43:29.684Z,17.45
2022-12-23T09:48:58.818Z,17.52
2022-12-23T09:54:24.647Z,17.61
2022-12-23T09:59:50.462Z,17.66
2022-12-23T10:05:23.431Z,17.69
2022-12-23T10:10:34.452Z,17.73
2022-12-23T10:15:44.321Z,17.76
2022-12-23T10:20:54.153Z,17.80
2022-12-23T10:26:01.588Z,17.82
2022-12-23T10:31:30.874Z,17.86
2022-12-23T10:36:50.677Z,17.88
2022-12-23T10:42:05.860Z,17.88
2022-12-23T10:47:36.455Z,17.89
2022-12-23T10:52:41.394Z,17.91
2022-12-23T10:57:46.183Z,17.92
2022-12-23T11:03:38.172Z,17.94
2022-12-23T11:08:40.800Z,17.94
2022-12-23T11:13:46.579Z,17.94
2022-12-23T11:19:05.825Z,17.92
2022-12-23T11:24:19.269Z,17.92
2022-12-23T11:29:23.907Z,17.90
2022-12-23T11:34:26.700Z,17.89
2022-12-23T11:39:39.519Z,17.88
2022-12-23T11:44:44.310Z,17.88
2022-12-23T11:49:56.544Z,17.87
2022-12-23T11:55:04.319Z,17.86
2022-12-23T12:00:09.100Z,17.84
2022-12-23T12:05:26.026Z,17.83
2022-12-23T12:10:33.004Z,17.82
2022-12-23T12:15:48.587Z,17.82
2022-12-23T12:20:56.043Z,17.81
2022-12-23T12:26:08.099Z,17.80
2022-12-23T12:31:23.495Z,17.79
2022-12-23T12:36:55.345Z,17.79
2022-12-23T12:42:11.659Z,17.79
2022-12-23T12:52:42.158Z,17.77
2022-12-23T12:57:44.929Z,17.75
2022-12-23T13:03:04.814Z,17.74
2022-12-23T13:08:42.649Z,17.74
2022-12-23T13:14:02.925Z,17.73
2022-12-23T13:19:22.470Z,17.71
2022-12-23T13:25:04.564Z,17.71
2022-12-23T13:30:17.704Z,17.71
2022-12-23T13:35:46.946Z,17.70
2022-12-23T13:40:57.763Z,17.70
2022-12-23T13:46:05.074Z,17.71
2022-12-23T13:51:15.207Z,17.70
2022-12-23T13:56:35.345Z,17.72
2022-12-23T14:01:42.449Z,17.71
2022-12-23T14:06:44.939Z,17.73
2022-12-23T14:11:49.089Z,17.71
2022-12-23T14:17:16.341Z,17.73
2022-12-23T14:22:21.252Z,17.74
2022-12-23T14:27:41.970Z,17.74
2022-12-23T14:32:53.764Z,17.75
2022-12-23T14:38:16.849Z,17.73
2022-12-23T14:43:51.291Z,17.71
2022-12-23T14:49:22.470Z,17.71
2022-12-23T14:54:37.989Z,17.70
2022-12-23T14:59:51.452Z,17.69
2022-12-23T15:04:58.087Z,17.69
2022-12-23T15:10:26.169Z,17.67
2022-12-23T15:15:29.795Z,17.66
2022-12-23T15:20:35.234Z,17.65
2022-12-23T15:25:51.456Z,17.65
2022-12-23T15:30:56.731Z,17.66
2022-12-23T15:36:01.924Z,17.66
2022-12-23T15:41:16.134Z,17.64
2022-12-23T15:46:28.998Z,17.65
2022-12-23T15:52:05.852Z,17.65
2022-12-23T15:56:57.994Z,17.62
2022-12-23T16:02:49.579Z,17.60
2022-12-23T16:07:39.269Z,17.60
2022-12-23T16:12:41.808Z,17.59
2022-12-23T16:17:46.180Z,17.62
2022-12-23T16:22:51.145Z,17.62
2022-12-23T16:28:06.040Z,17.61
2022-12-23T16:33:28.023Z,17.62
2022-12-23T16:38:34.836Z,17.62
2022-12-23T16:43:38.558Z,17.62
2022-12-23T16:48:48.174Z,17.61
2022-12-23T16:53:55.301Z,17.59
2022-12-23T16:58:57.046Z,17.57
2022-12-23T17:04:04.564Z,17.58
2022-12-23T17:09:09.579Z,17.58
2022-12-23T17:14:21.653Z,17.58
2022-12-23T17:19:28.912Z,17.62
2022-12-23T17:24:31.452Z,17.62
2022-12-23T17:29:34.878Z,17.63
2022-12-23T17:34:40.055Z,17.62
2022-12-23T17:39:42.977Z,17.61
2022-12-23T17:44:47.445Z,17.59
2022-12-23T17:49:49.630Z,17.57
2022-12-23T17:54:51.582Z,17.56
2022-12-23T17:59:54.356Z,17.55
2022-12-23T18:04:56.270Z,17.54
2022-12-23T18:10:00.213Z,17.51
2022-12-23T18:15:02.978Z,17.52
2022-12-23T18:20:09.312Z,17.49
2022-12-23T18:25:22.808Z,17.74
2022-12-23T18:30:27.598Z,17.81
2022-12-23T18:35:35.368Z,17.82
2022-12-23T18:40:40.163Z,17.82
2022-12-23T18:45:50.699Z,17.83
2022-12-23T18:50:54.459Z,17.81
2022-12-23T18:55:56.194Z,17.81
2022-12-23T19:00:58.044Z,17.82
2022-12-23T19:06:06.492Z,17.82
2022-12-23T19:11:20.723Z,17.84
2022-12-23T19:16:22.755Z,17.83
2022-12-23T19:21:24.600Z,17.82
2022-12-23T19:26:31.020Z,17.79
2022-12-23T19:31:34.986Z,17.78
2022-12-23T19:36:39.848Z,17.75
2022-12-23T19:41:49.118Z,17.74
2022-12-23T19:46:53.208Z,17.72
2022-12-23T19:52:00.948Z,17.69
2022-12-23T19:57:07.198Z,17.67
2022-12-23T20:02:15.643Z,17.65
2022-12-23T20:07:17.560Z,17.63
2022-12-23T20:12:19.352Z,17.62
2022-12-23T20:17:21.050Z,17.63
2022-12-23T20:22:25.676Z,17.61
2022-12-23T20:27:28.273Z,17.60
2022-12-23T20:32:31.274Z,17.58
2022-12-23T20:37:33.624Z,17.57
2022-12-23T20:42:37.685Z,17.58
2022-12-23T20:47:42.177Z,17.55
2022-12-23T20:52:46.299Z,17.55
2022-12-23T20:57:48.159Z,17.53
2022-12-23T21:02:53.112Z,17.53
2022-12-23T21:07:54.968Z,17.52
2022-12-23T21:12:59.099Z,17.50
2022-12-23T21:18:01.060Z,17.51
2022-12-23T21:23:09.396Z,15.25
2022-12-23T21:28:16.181Z,9.98
2022-12-23T21:33:22.229Z,8.62
2022-12-23T21:38:32.279Z,7.19
2022-12-23T21:43:34.291Z,6.60
2022-12-23T21:48:36.784Z,6.17
2022-12-23T21:53:39.145Z,5.91
2022-12-23T21:58:41.617Z,5.71
2022-12-23T22:03:48.429Z,5.55
2022-12-23T22:08:54.635Z,5.46
2022-12-23T22:13:57.925Z,5.37
2022-12-23T22:19:04.988Z,5.32
2022-12-23T22:24:07.252Z,5.27
2022-12-23T22:29:10.801Z,5.22
2022-12-23T22:34:18.393Z,5.19
2022-12-23T22:39:21.958Z,5.14
2022-12-23T22:44:26.011Z,5.13
2022-12-23T22:49:28.125Z,5.12
2022-12-23T22:54:29.889Z,5.11
2022-12-23T22:59:34.572Z,5.12
2022-12-23T23:04:36.439Z,5.11
2022-12-23T23:09:38.172Z,5.12
2022-12-23T23:14:55.018Z,5.12
2022-12-23T23:19:58.835Z,5.12
2022-12-23T23:25:00.759Z,5.12
2022-12-23T23:30:07.547Z,5.14
2022-12-23T23:35:11.027Z,5.15
2022-12-23T23:40:13.186Z,5.18
2022-12-23T23:45:14.918Z,5.20
2022-12-23T23:50:20.127Z,5.19
2022-12-23T23:55:21.939Z,5.21
